sensor_id;sensor_type;location;lat;lon;timestamp;temperature;humidity
29031;DHT22;16122;50.236;11.734;2023-05-10T00:02:10;17.60;68.90
29031;DHT22;16122;50.236;11.734;2023-05-10T00:04:36;17.60;68.60
29031;DHT22;16122;50.236;11.734;2023-05-10T00:07:01;17.60;68.40
29031;DHT22;16122;50.236;11.734;2023-05-10T00:09:27;17.60;68.20
29031;DHT22;16122;50.236;11.734;2023-05-10T00:11:53;17.60;68.30
29031;DHT22;16122;50.236;11.734;2023-05-10T00:14:19;17.60;68.20
29031;DHT22;16122;50.236;11.734;2023-05-10T00:16:45;17.60;68.10
29031;DHT22;16122;50.236;11.734;2023-05-10T00:19:11;17.60;68.20
29031;DHT22;16122;50.236;11.734;2023-05-10T00:21:36;17.60;68.20
29031;DHT22;16122;50.236;11.734;2023-05-10T00:24:02;17.60;68.10
29031;DHT22;16122;50.236;11.734;2023-05-10T00:26:28;17.60;68.00
29031;DHT22;16122;50.236;11.734;2023-05-10T00:28:55;17.60;68.10
29031;DHT22;16122;50.236;11.734;2023-05-10T00:31:22;17.60;67.90
29031;DHT22;16122;50.236;11.734;2023-05-10T00:33:49;17.60;67.90
29031;DHT22;16122;50.236;11.734;2023-05-10T00:36:15;17.60;67.80
29031;DHT22;16122;50.236;11.734;2023-05-10T00:38:41;17.60;67.90
29031;DHT22;16122;50.236;11.734;2023-05-10T00:41:07;17.60;67.70
29031;DHT22;16122;50.236;11.734;2023-05-10T00:43:34;17.50;67.60
29031;DHT22;16122;50.236;11.734;2023-05-10T00:46:04;17.50;67.70
29031;DHT22;16122;50.236;11.734;2023-05-10T00:48:30;17.50;67.40
29031;DHT22;16122;50.236;11.734;2023-05-10T00:50:55;17.50;67.40
29031;DHT22;16122;50.236;11.734;2023-05-10T00:53:21;17.50;67.70
29031;DHT22;16122;50.236;11.734;2023-05-10T00:55:47;17.50;67.60
29031;DHT22;16122;50.236;11.734;2023-05-10T00:58:14;17.50;67.50
29031;DHT22;16122;50.236;11.734;2023-05-10T01:00:41;17.50;67.50
29031;DHT22;16122;50.236;11.734;2023-05-10T01:03:10;17.50;67.50
29031;DHT22;16122;50.236;11.734;2023-05-10T01:05:37;17.50;67.50
29031;DHT22;16122;50.236;11.734;2023-05-10T01:08:03;17.50;67.50
29031;DHT22;16122;50.236;11.734;2023-05-10T01:10:30;17.50;67.40
29031;DHT22;16122;50.236;11.734;2023-05-10T01:12:56;17.50;67.50
29031;DHT22;16122;50.236;11.734;2023-05-10T01:15:22;17.50;67.60
29031;DHT22;16122;50.236;11.734;2023-05-10T01:17:49;17.50;67.60
29031;DHT22;16122;50.236;11.734;2023-05-10T01:20:15;17.50;67.30
29031;DHT22;16122;50.236;11.734;2023-05-10T01:34:35;17.50;67.10
29031;DHT22;16122;50.236;11.734;2023-05-10T01:37:06;17.40;67.10
29031;DHT22;16122;50.236;11.734;2023-05-10T01:39:47;17.50;67.40
29031;DHT22;16122;50.236;11.734;2023-05-10T01:42:19;17.40;67.20
29031;DHT22;16122;50.236;11.734;2023-05-10T01:47:43;17.50;67.30
29031;DHT22;16122;50.236;11.734;2023-05-10T01:50:19;17.50;67.30
29031;DHT22;16122;50.236;11.734;2023-05-10T01:52:53;17.50;67.40
29031;DHT22;16122;50.236;11.734;2023-05-10T01:55:22;17.40;67.40
29031;DHT22;16122;50.236;11.734;2023-05-10T01:57:56;17.40;67.30
29031;DHT22;16122;50.236;11.734;2023-05-10T02:00:24;17.40;67.30
29031;DHT22;16122;50.236;11.734;2023-05-10T02:02:52;17.40;67.30
29031;DHT22;16122;50.236;11.734;2023-05-10T02:05:18;17.50;67.50
29031;DHT22;16122;50.236;11.734;2023-05-10T02:07:47;17.40;67.40
29031;DHT22;16122;50.236;11.734;2023-05-10T02:10:13;17.40;67.40
29031;DHT22;16122;50.236;11.734;2023-05-10T02:12:43;17.40;67.40
29031;DHT22;16122;50.236;11.734;2023-05-10T02:15:11;17.40;67.40
29031;DHT22;16122;50.236;11.734;2023-05-10T02:17:37;17.40;67.40
29031;DHT22;16122;50.236;11.734;2023-05-10T02:20:06;17.30;67.30
29031;DHT22;16122;50.236;11.734;2023-05-10T02:22:33;17.40;67.40
29031;DHT22;16122;50.236;11.734;2023-05-10T02:25:00;17.40;67.30
29031;DHT22;16122;50.236;11.734;2023-05-10T02:27:28;17.40;67.30
29031;DHT22;16122;50.236;11.734;2023-05-10T02:29:55;17.40;67.30
29031;DHT22;16122;50.236;11.734;2023-05-10T02:32:24;17.40;67.30
29031;DHT22;16122;50.236;11.734;2023-05-10T02:34:51;17.40;67.40
29031;DHT22;16122;50.236;11.734;2023-05-10T02:37:19;17.40;67.20
29031;DHT22;16122;50.236;11.734;2023-05-10T02:39:47;17.40;67.20
29031;DHT22;16122;50.236;11.734;2023-05-10T02:42:16;17.40;67.20
29031;DHT22;16122;50.236;11.734;2023-05-10T02:44:47;17.40;67.10
29031;DHT22;16122;50.236;11.734;2023-05-10T02:47:14;17.40;67.10
29031;DHT22;16122;50.236;11.734;2023-05-10T02:49:40;17.40;67.20
29031;DHT22;16122;50.236;11.734;2023-05-10T02:52:08;17.40;67.20
29031;DHT22;16122;50.236;11.734;2023-05-10T02:54:48;17.40;67.20
29031;DHT22;16122;50.236;11.734;2023-05-10T02:57:16;17.40;67.30
29031;DHT22;16122;50.236;11.734;2023-05-10T02:59:45;17.30;67.10
29031;DHT22;16122;50.236;11.734;2023-05-10T03:02:14;17.30;67.10
29031;DHT22;16122;50.236;11.734;2023-05-10T03:04:40;17.40;67.30
29031;DHT22;16122;50.236;11.734;2023-05-10T03:07:06;17.30;67.20
29031;DHT22;16122;50.236;11.734;2023-05-10T03:09:32;17.40;67.30
29031;DHT22;16122;50.236;11.734;2023-05-10T03:15:07;17.40;67.40
29031;DHT22;16122;50.236;11.734;2023-05-10T03:20:26;17.30;67.10
29031;DHT22;16122;50.236;11.734;2023-05-10T03:23:04;17.30;67.20
29031;DHT22;16122;50.236;11.734;2023-05-10T03:25:32;17.30;67.10
29031;DHT22;16122;50.236;11.734;2023-05-10T03:28:01;17.30;67.10
29031;DHT22;16122;50.236;11.734;2023-05-10T03:30:29;17.30;67.20
29031;DHT22;16122;50.236;11.734;2023-05-10T03:32:56;17.30;67.10
29031;DHT22;16122;50.236;11.734;2023-05-10T03:35:23;17.30;67.10
29031;DHT22;16122;50.236;11.734;2023-05-10T03:37:49;17.30;67.20
29031;DHT22;16122;50.236;11.734;2023-05-10T03:40:15;17.30;67.10
29031;DHT22;16122;50.236;11.734;2023-05-10T03:42:42;17.30;67.10
29031;DHT22;16122;50.236;11.734;2023-05-10T03:45:09;17.30;67.20
29031;DHT22;16122;50.236;11.734;2023-05-10T03:47:35;17.30;67.10
29031;DHT22;16122;50.236;11.734;2023-05-10T03:50:01;17.30;67.20
29031;DHT22;16122;50.236;11.734;2023-05-10T03:52:28;17.30;67.10
29031;DHT22;16122;50.236;11.734;2023-05-10T03:54:54;17.30;67.20
29031;DHT22;16122;50.236;11.734;2023-05-10T03:57:20;17.30;67.10
29031;DHT22;16122;50.236;11.734;2023-05-10T03:59:46;17.30;67.10
29031;DHT22;16122;50.236;11.734;2023-05-10T04:02:12;17.30;67.10
29031;DHT22;16122;50.236;11.734;2023-05-10T04:04:38;17.30;67.00
29031;DHT22;16122;50.236;11.734;2023-05-10T04:07:04;17.30;67.30
29031;DHT22;16122;50.236;11.734;2023-05-10T04:09:30;17.30;67.70
29031;DHT22;16122;50.236;11.734;2023-05-10T04:11:55;17.30;67.90
29031;DHT22;16122;50.236;11.734;2023-05-10T04:14:21;17.30;68.10
29031;DHT22;16122;50.236;11.734;2023-05-10T04:16:47;17.30;68.60
29031;DHT22;16122;50.236;11.734;2023-05-10T04:19:13;17.30;68.80
29031;DHT22;16122;50.236;11.734;2023-05-10T04:21:39;17.30;69.20
29031;DHT22;16122;50.236;11.734;2023-05-10T04:24:05;17.30;69.20
29031;DHT22;16122;50.236;11.734;2023-05-10T04:26:30;17.30;69.50
29031;DHT22;16122;50.236;11.734;2023-05-10T04:28:56;17.30;69.40
29031;DHT22;16122;50.236;11.734;2023-05-10T04:31:22;17.30;69.80
29031;DHT22;16122;50.236;11.734;2023-05-10T04:33:48;17.30;70.30
29031;DHT22;16122;50.236;11.734;2023-05-10T04:36:15;17.30;70.50
29031;DHT22;16122;50.236;11.734;2023-05-10T04:38:41;17.30;70.50
29031;DHT22;16122;50.236;11.734;2023-05-10T04:41:09;17.40;70.80
29031;DHT22;16122;50.236;11.734;2023-05-10T04:43:35;17.40;70.70
29031;DHT22;16122;50.236;11.734;2023-05-10T04:46:01;17.40;70.80
29031;DHT22;16122;50.236;11.734;2023-05-10T04:48:27;17.40;70.90
29031;DHT22;16122;50.236;11.734;2023-05-10T04:50:53;17.40;70.70
29031;DHT22;16122;50.236;11.734;2023-05-10T04:53:20;17.40;70.40
29031;DHT22;16122;50.236;11.734;2023-05-10T04:55:46;17.40;69.60
29031;DHT22;16122;50.236;11.734;2023-05-10T04:58:12;17.40;69.80
29031;DHT22;16122;50.236;11.734;2023-05-10T05:00:38;17.40;69.60
29031;DHT22;16122;50.236;11.734;2023-05-10T05:03:04;17.40;69.50
29031;DHT22;16122;50.236;11.734;2023-05-10T05:05:30;17.30;69.40
29031;DHT22;16122;50.236;11.734;2023-05-10T05:07:56;17.40;69.40
29031;DHT22;16122;50.236;11.734;2023-05-10T05:10:22;17.30;69.30
29031;DHT22;16122;50.236;11.734;2023-05-10T05:12:48;17.30;69.30
29031;DHT22;16122;50.236;11.734;2023-05-10T05:15:13;17.30;69.20
29031;DHT22;16122;50.236;11.734;2023-05-10T05:17:40;17.30;69.00
29031;DHT22;16122;50.236;11.734;2023-05-10T05:20:07;17.30;69.10
29031;DHT22;16122;50.236;11.734;2023-05-10T05:22:33;17.30;69.10
29031;DHT22;16122;50.236;11.734;2023-05-10T05:24:59;17.30;69.20
29031;DHT22;16122;50.236;11.734;2023-05-10T05:27:26;17.30;69.20
29031;DHT22;16122;50.236;11.734;2023-05-10T05:29:54;17.30;69.10
29031;DHT22;16122;50.236;11.734;2023-05-10T05:32:19;17.30;69.00
29031;DHT22;16122;50.236;11.734;2023-05-10T05:34:45;17.30;69.10
29031;DHT22;16122;50.236;11.734;2023-05-10T05:37:16;17.30;69.00
29031;DHT22;16122;50.236;11.734;2023-05-10T05:39:42;17.30;68.90
29031;DHT22;16122;50.236;11.734;2023-05-10T05:42:12;17.30;68.90
29031;DHT22;16122;50.236;11.734;2023-05-10T05:44:39;17.30;69.00
29031;DHT22;16122;50.236;11.734;2023-05-10T05:47:05;17.30;69.00
29031;DHT22;16122;50.236;11.734;2023-05-10T05:49:32;17.20;68.90
29031;DHT22;16122;50.236;11.734;2023-05-10T05:52:02;17.20;68.90
29031;DHT22;16122;50.236;11.734;2023-05-10T05:54:29;17.20;68.90
29031;DHT22;16122;50.236;11.734;2023-05-10T05:56:56;17.20;68.90
29031;DHT22;16122;50.236;11.734;2023-05-10T05:59:22;17.20;68.90
29031;DHT22;16122;50.236;11.734;2023-05-10T06:01:48;17.20;68.90
29031;DHT22;16122;50.236;11.734;2023-05-10T06:04:15;17.20;68.90
29031;DHT22;16122;50.236;11.734;2023-05-10T06:06:41;17.20;68.80
29031;DHT22;16122;50.236;11.734;2023-05-10T06:09:08;17.20;68.90
29031;DHT22;16122;50.236;11.734;2023-05-10T06:11:34;17.20;68.90
29031;DHT22;16122;50.236;11.734;2023-05-10T06:14:01;17.20;68.90
29031;DHT22;16122;50.236;11.734;2023-05-10T06:16:27;17.20;68.90
29031;DHT22;16122;50.236;11.734;2023-05-10T06:18:53;17.20;68.90
29031;DHT22;16122;50.236;11.734;2023-05-10T06:21:19;17.20;68.90
29031;DHT22;16122;50.236;11.734;2023-05-10T06:23:45;17.20;68.90
29031;DHT22;16122;50.236;11.734;2023-05-10T06:26:11;17.20;68.80
29031;DHT22;16122;50.236;11.734;2023-05-10T06:28:37;17.20;68.90
29031;DHT22;16122;50.236;11.734;2023-05-10T06:31:06;17.20;69.00
29031;DHT22;16122;50.236;11.734;2023-05-10T06:33:33;17.20;68.90
29031;DHT22;16122;50.236;11.734;2023-05-10T06:35:59;17.20;69.00
29031;DHT22;16122;50.236;11.734;2023-05-10T06:38:25;17.20;68.90
29031;DHT22;16122;50.236;11.734;2023-05-10T06:40:51;17.20;68.90
29031;DHT22;16122;50.236;11.734;2023-05-10T06:43:17;17.20;68.90
29031;DHT22;16122;50.236;11.734;2023-05-10T06:45:43;17.20;68.90
29031;DHT22;16122;50.236;11.734;2023-05-10T06:48:09;17.20;68.90
29031;DHT22;16122;50.236;11.734;2023-05-10T06:50:35;17.20;68.90
29031;DHT22;16122;50.236;11.734;2023-05-10T06:53:01;17.20;69.00
29031;DHT22;16122;50.236;11.734;2023-05-10T06:55:29;17.20;69.00
29031;DHT22;16122;50.236;11.734;2023-05-10T06:57:55;17.20;69.00
29031;DHT22;16122;50.236;11.734;2023-05-10T07:00:21;17.20;69.00
29031;DHT22;16122;50.236;11.734;2023-05-10T07:02:47;17.20;69.00
29031;DHT22;16122;50.236;11.734;2023-05-10T07:05:13;17.20;68.90
29031;DHT22;16122;50.236;11.734;2023-05-10T07:07:39;17.20;68.90
29031;DHT22;16122;50.236;11.734;2023-05-10T07:10:06;17.20;69.00
29031;DHT22;16122;50.236;11.734;2023-05-10T07:12:32;17.20;68.90
29031;DHT22;16122;50.236;11.734;2023-05-10T07:14:58;17.20;69.00
29031;DHT22;16122;50.236;11.734;2023-05-10T07:17:24;17.20;69.00
29031;DHT22;16122;50.236;11.734;2023-05-10T07:19:50;17.10;68.90
29031;DHT22;16122;50.236;11.734;2023-05-10T07:22:16;17.10;68.90
29031;DHT22;16122;50.236;11.734;2023-05-10T07:24:44;17.10;68.90
29031;DHT22;16122;50.236;11.734;2023-05-10T07:27:11;17.10;69.00
29031;DHT22;16122;50.236;11.734;2023-05-10T07:29:37;17.10;68.90
29031;DHT22;16122;50.236;11.734;2023-05-10T07:32:03;17.10;69.00
29031;DHT22;16122;50.236;11.734;2023-05-10T07:34:29;17.20;69.00
29031;DHT22;16122;50.236;11.734;2023-05-10T07:36:59;17.20;69.10
29031;DHT22;16122;50.236;11.734;2023-05-10T07:39:29;17.10;68.90
29031;DHT22;16122;50.236;11.734;2023-05-10T07:41:55;17.20;69.10
29031;DHT22;16122;50.236;11.734;2023-05-10T07:44:21;17.10;69.00
29031;DHT22;16122;50.236;11.734;2023-05-10T07:46:47;17.10;69.10
29031;DHT22;16122;50.236;11.734;2023-05-10T07:49:14;17.20;69.10
29031;DHT22;16122;50.236;11.734;2023-05-10T07:51:40;17.10;69.00
29031;DHT22;16122;50.236;11.734;2023-05-10T07:54:05;17.10;69.00
29031;DHT22;16122;50.236;11.734;2023-05-10T07:56:32;17.20;69.10
29031;DHT22;16122;50.236;11.734;2023-05-10T07:59:03;17.20;69.10
29031;DHT22;16122;50.236;11.734;2023-05-10T08:01:33;17.20;69.10
29031;DHT22;16122;50.236;11.734;2023-05-10T08:04:00;17.20;69.10
29031;DHT22;16122;50.236;11.734;2023-05-10T08:06:26;17.20;69.00
29031;DHT22;16122;50.236;11.734;2023-05-10T08:08:53;17.20;69.00
29031;DHT22;16122;50.236;11.734;2023-05-10T08:11:20;17.20;69.00
29031;DHT22;16122;50.236;11.734;2023-05-10T08:13:48;17.20;69.00
29031;DHT22;16122;50.236;11.734;2023-05-10T08:16:14;17.20;69.00
29031;DHT22;16122;50.236;11.734;2023-05-10T08:18:40;17.20;69.00
29031;DHT22;16122;50.236;11.734;2023-05-10T08:21:06;17.20;69.00
29031;DHT22;16122;50.236;11.734;2023-05-10T08:23:32;17.20;69.00
29031;DHT22;16122;50.236;11.734;2023-05-10T08:25:59;17.20;69.00
29031;DHT22;16122;50.236;11.734;2023-05-10T08:28:24;17.20;69.00
29031;DHT22;16122;50.236;11.734;2023-05-10T08:30:50;17.20;69.00
29031;DHT22;16122;50.236;11.734;2023-05-10T08:33:18;17.20;68.90
29031;DHT22;16122;50.236;11.734;2023-05-10T08:35:44;17.20;69.00
29031;DHT22;16122;50.236;11.734;2023-05-10T08:38:10;17.20;69.70
29031;DHT22;16122;50.236;11.734;2023-05-10T08:40:43;17.20;68.90
29031;DHT22;16122;50.236;11.734;2023-05-10T08:43:11;17.20;68.90
29031;DHT22;16122;50.236;11.734;2023-05-10T08:45:38;17.20;68.80
29031;DHT22;16122;50.236;11.734;2023-05-10T08:48:08;17.20;68.80
29031;DHT22;16122;50.236;11.734;2023-05-10T08:50:40;17.30;68.90
29031;DHT22;16122;50.236;11.734;2023-05-10T08:53:13;17.30;68.80
29031;DHT22;16122;50.236;11.734;2023-05-10T08:55:40;17.30;68.80
29031;DHT22;16122;50.236;11.734;2023-05-10T08:58:08;17.20;68.70
29031;DHT22;16122;50.236;11.734;2023-05-10T09:00:35;17.30;68.80
29031;DHT22;16122;50.236;11.734;2023-05-10T09:03:02;17.30;68.80
29031;DHT22;16122;50.236;11.734;2023-05-10T09:05:29;17.30;68.80
29031;DHT22;16122;50.236;11.734;2023-05-10T09:07:54;17.20;68.70
29031;DHT22;16122;50.236;11.734;2023-05-10T09:10:20;17.20;68.70
29031;DHT22;16122;50.236;11.734;2023-05-10T09:12:48;17.30;68.80
29031;DHT22;16122;50.236;11.734;2023-05-10T09:15:15;17.30;68.80
29031;DHT22;16122;50.236;11.734;2023-05-10T09:17:45;17.30;68.80
29031;DHT22;16122;50.236;11.734;2023-05-10T09:20:11;17.30;68.80
29031;DHT22;16122;50.236;11.734;2023-05-10T09:22:37;17.30;68.80
29031;DHT22;16122;50.236;11.734;2023-05-10T09:25:14;17.20;68.70
29031;DHT22;16122;50.236;11.734;2023-05-10T09:27:44;17.30;68.80
29031;DHT22;16122;50.236;11.734;2023-05-10T09:30:15;17.30;68.70
29031;DHT22;16122;50.236;11.734;2023-05-10T09:32:44;17.30;68.80
29031;DHT22;16122;50.236;11.734;2023-05-10T09:37:39;17.30;68.70
29031;DHT22;16122;50.236;11.734;2023-05-10T09:40:12;17.30;68.70
29031;DHT22;16122;50.236;11.734;2023-05-10T09:42:39;17.30;68.60
29031;DHT22;16122;50.236;11.734;2023-05-10T09:45:06;17.30;68.60
29031;DHT22;16122;50.236;11.734;2023-05-10T09:47:36;17.30;68.70
29031;DHT22;16122;50.236;11.734;2023-05-10T09:50:03;17.30;68.60
29031;DHT22;16122;50.236;11.734;2023-05-10T09:52:30;17.30;68.60
29031;DHT22;16122;50.236;11.734;2023-05-10T09:54:57;17.30;68.70
29031;DHT22;16122;50.236;11.734;2023-05-10T09:57:23;17.30;68.60
29031;DHT22;16122;50.236;11.734;2023-05-10T09:59:50;17.30;68.70
29031;DHT22;16122;50.236;11.734;2023-05-10T10:02:17;17.30;68.70
29031;DHT22;16122;50.236;11.734;2023-05-10T10:04:43;17.30;68.60
29031;DHT22;16122;50.236;11.734;2023-05-10T10:07:09;17.30;68.70
29031;DHT22;16122;50.236;11.734;2023-05-10T10:09:35;17.30;68.70
29031;DHT22;16122;50.236;11.734;2023-05-10T10:12:04;17.30;68.70
29031;DHT22;16122;50.236;11.734;2023-05-10T10:14:30;17.30;68.70
29031;DHT22;16122;50.236;11.734;2023-05-10T10:16:56;17.30;68.70
29031;DHT22;16122;50.236;11.734;2023-05-10T10:19:22;17.30;68.60
29031;DHT22;16122;50.236;11.734;2023-05-10T10:21:49;17.30;69.30
29031;DHT22;16122;50.236;11.734;2023-05-10T10:24:15;17.30;68.90
29031;DHT22;16122;50.236;11.734;2023-05-10T10:26:42;17.30;69.20
29031;DHT22;16122;50.236;11.734;2023-05-10T10:29:26;17.30;69.30
29031;DHT22;16122;50.236;11.734;2023-05-10T10:34:27;17.30;69.90
29031;DHT22;16122;50.236;11.734;2023-05-10T10:36:55;17.30;70.10
29031;DHT22;16122;50.236;11.734;2023-05-10T10:39:23;17.30;70.20
29031;DHT22;16122;50.236;11.734;2023-05-10T10:41:55;17.30;70.50
29031;DHT22;16122;50.236;11.734;2023-05-10T10:47:21;17.30;70.50
29031;DHT22;16122;50.236;11.734;2023-05-10T10:52:32;17.30;70.50
29031;DHT22;16122;50.236;11.734;2023-05-10T11:00:29;17.30;70.30
29031;DHT22;16122;50.236;11.734;2023-05-10T11:03:15;17.30;70.20
29031;DHT22;16122;50.236;11.734;2023-05-10T11:05:47;17.30;70.20
29031;DHT22;16122;50.236;11.734;2023-05-10T11:08:27;17.30;70.30
29031;DHT22;16122;50.236;11.734;2023-05-10T11:16:17;17.30;70.20
29031;DHT22;16122;50.236;11.734;2023-05-10T11:19:04;17.30;70.10
29031;DHT22;16122;50.236;11.734;2023-05-10T11:21:31;17.30;70.10
29031;DHT22;16122;50.236;11.734;2023-05-10T11:23:59;17.30;70.20
29031;DHT22;16122;50.236;11.734;2023-05-10T11:26:30;17.30;70.10
29031;DHT22;16122;50.236;11.734;2023-05-10T11:28:56;17.30;70.10
29031;DHT22;16122;50.236;11.734;2023-05-10T11:31:24;17.30;70.10
29031;DHT22;16122;50.236;11.734;2023-05-10T11:33:56;17.30;70.10
29031;DHT22;16122;50.236;11.734;2023-05-10T11:36:26;17.30;70.20
29031;DHT22;16122;50.236;11.734;2023-05-10T11:38:53;17.30;70.30
29031;DHT22;16122;50.236;11.734;2023-05-10T11:41:19;17.30;70.50
29031;DHT22;16122;50.236;11.734;2023-05-10T11:43:52;17.30;70.70
29031;DHT22;16122;50.236;11.734;2023-05-10T11:46:20;17.30;70.80
29031;DHT22;16122;50.236;11.734;2023-05-10T11:48:50;17.30;71.10
29031;DHT22;16122;50.236;11.734;2023-05-10T11:51:20;17.30;71.10
29031;DHT22;16122;50.236;11.734;2023-05-10T11:53:47;17.30;71.30
29031;DHT22;16122;50.236;11.734;2023-05-10T11:56:13;17.30;71.30
29031;DHT22;16122;50.236;11.734;2023-05-10T11:58:39;17.30;71.40
29031;DHT22;16122;50.236;11.734;2023-05-10T12:01:10;17.30;71.40
29031;DHT22;16122;50.236;11.734;2023-05-10T12:03:36;17.30;71.40
29031;DHT22;16122;50.236;11.734;2023-05-10T12:06:03;17.40;71.90
29031;DHT22;16122;50.236;11.734;2023-05-10T12:08:29;17.40;71.80
29031;DHT22;16122;50.236;11.734;2023-05-10T12:11:16;17.40;71.80
29031;DHT22;16122;50.236;11.734;2023-05-10T12:13:43;17.40;72.30
29031;DHT22;16122;50.236;11.734;2023-05-10T12:16:21;17.40;72.40
29031;DHT22;16122;50.236;11.734;2023-05-10T12:18:51;17.40;72.40
29031;DHT22;16122;50.236;11.734;2023-05-10T12:21:18;17.40;72.50
29031;DHT22;16122;50.236;11.734;2023-05-10T12:23:46;17.40;72.50
29031;DHT22;16122;50.236;11.734;2023-05-10T12:26:12;17.40;72.50
29031;DHT22;16122;50.236;11.734;2023-05-10T12:28:38;17.40;72.40
29031;DHT22;16122;50.236;11.734;2023-05-10T12:31:06;17.40;72.50
29031;DHT22;16122;50.236;11.734;2023-05-10T12:33:42;17.40;72.30
29031;DHT22;16122;50.236;11.734;2023-05-10T12:36:13;17.40;72.50
29031;DHT22;16122;50.236;11.734;2023-05-10T12:38:43;17.40;72.50
29031;DHT22;16122;50.236;11.734;2023-05-10T12:41:12;17.40;72.80
29031;DHT22;16122;50.236;11.734;2023-05-10T12:43:39;17.40;72.80
29031;DHT22;16122;50.236;11.734;2023-05-10T12:46:10;17.40;73.00
29031;DHT22;16122;50.236;11.734;2023-05-10T12:48:37;17.40;73.00
29031;DHT22;16122;50.236;11.734;2023-05-10T12:51:03;17.40;73.10
29031;DHT22;16122;50.236;11.734;2023-05-10T12:53:29;17.40;73.10
29031;DHT22;16122;50.236;11.734;2023-05-10T12:55:55;17.40;73.20
29031;DHT22;16122;50.236;11.734;2023-05-10T12:58:21;17.40;73.10
29031;DHT22;16122;50.236;11.734;2023-05-10T13:00:47;17.40;73.30
29031;DHT22;16122;50.236;11.734;2023-05-10T13:03:13;17.40;73.40
29031;DHT22;16122;50.236;11.734;2023-05-10T13:05:40;17.40;73.40
29031;DHT22;16122;50.236;11.734;2023-05-10T13:08:05;17.40;73.50
29031;DHT22;16122;50.236;11.734;2023-05-10T13:10:32;17.40;73.60
29031;DHT22;16122;50.236;11.734;2023-05-10T13:12:58;17.40;74.20
29031;DHT22;16122;50.236;11.734;2023-05-10T13:15:25;17.40;73.80
29031;DHT22;16122;50.236;11.734;2023-05-10T13:17:51;17.40;73.60
29031;DHT22;16122;50.236;11.734;2023-05-10T13:20:17;17.40;73.50
29031;DHT22;16122;50.236;11.734;2023-05-10T13:22:43;17.40;73.50
29031;DHT22;16122;50.236;11.734;2023-05-10T13:25:09;17.40;73.50
29031;DHT22;16122;50.236;11.734;2023-05-10T13:27:36;17.40;73.40
29031;DHT22;16122;50.236;11.734;2023-05-10T13:30:03;17.40;73.30
29031;DHT22;16122;50.236;11.734;2023-05-10T13:32:29;17.40;73.30
29031;DHT22;16122;50.236;11.734;2023-05-10T13:34:55;17.40;73.20
29031;DHT22;16122;50.236;11.734;2023-05-10T13:37:21;17.40;73.10
29031;DHT22;16122;50.236;11.734;2023-05-10T13:39:48;17.40;73.10
29031;DHT22;16122;50.236;11.734;2023-05-10T13:42:14;17.40;73.00
29031;DHT22;16122;50.236;11.734;2023-05-10T13:44:40;17.40;72.90
29031;DHT22;16122;50.236;11.734;2023-05-10T13:47:06;17.40;72.90
29031;DHT22;16122;50.236;11.734;2023-05-10T13:49:32;17.40;72.80
29031;DHT22;16122;50.236;11.734;2023-05-10T13:51:59;17.40;72.80
29031;DHT22;16122;50.236;11.734;2023-05-10T13:54:31;17.40;72.80
29031;DHT22;16122;50.236;11.734;2023-05-10T13:56:57;17.40;72.70
29031;DHT22;16122;50.236;11.734;2023-05-10T13:59:23;17.40;72.70
29031;DHT22;16122;50.236;11.734;2023-05-10T14:01:48;17.40;72.60
29031;DHT22;16122;50.236;11.734;2023-05-10T14:04:14;17.40;72.60
29031;DHT22;16122;50.236;11.734;2023-05-10T14:06:40;17.40;72.60
29031;DHT22;16122;50.236;11.734;2023-05-10T14:09:06;17.40;72.50
29031;DHT22;16122;50.236;11.734;2023-05-10T14:11:32;17.40;72.50
29031;DHT22;16122;50.236;11.734;2023-05-10T14:13:58;17.40;72.50
29031;DHT22;16122;50.236;11.734;2023-05-10T14:16:23;17.40;72.50
29031;DHT22;16122;50.236;11.734;2023-05-10T14:18:49;17.40;72.50
29031;DHT22;16122;50.236;11.734;2023-05-10T14:21:15;17.40;72.40
29031;DHT22;16122;50.236;11.734;2023-05-10T14:23:41;17.40;72.40
29031;DHT22;16122;50.236;11.734;2023-05-10T14:26:07;17.40;72.30
29031;DHT22;16122;50.236;11.734;2023-05-10T14:28:33;17.40;72.30
29031;DHT22;16122;50.236;11.734;2023-05-10T14:30:59;17.40;72.30
29031;DHT22;16122;50.236;11.734;2023-05-10T14:33:25;17.40;72.20
29031;DHT22;16122;50.236;11.734;2023-05-10T14:35:51;17.40;72.30
29031;DHT22;16122;50.236;11.734;2023-05-10T14:38:17;17.40;72.20
29031;DHT22;16122;50.236;11.734;2023-05-10T14:40:42;17.40;72.20
29031;DHT22;16122;50.236;11.734;2023-05-10T14:43:08;17.40;72.20
29031;DHT22;16122;50.236;11.734;2023-05-10T14:45:34;17.40;72.20
29031;DHT22;16122;50.236;11.734;2023-05-10T14:48:00;17.40;72.20
29031;DHT22;16122;50.236;11.734;2023-05-10T14:50:30;17.40;72.30
29031;DHT22;16122;50.236;11.734;2023-05-10T14:52:57;17.40;72.30
29031;DHT22;16122;50.236;11.734;2023-05-10T14:55:23;17.40;72.20
29031;DHT22;16122;50.236;11.734;2023-05-10T14:57:49;17.40;72.20
29031;DHT22;16122;50.236;11.734;2023-05-10T15:00:16;17.40;72.20
29031;DHT22;16122;50.236;11.734;2023-05-10T15:02:44;17.40;72.30
29031;DHT22;16122;50.236;11.734;2023-05-10T15:05:10;17.40;72.50
29031;DHT22;16122;50.236;11.734;2023-05-10T15:07:35;17.40;72.70
29031;DHT22;16122;50.236;11.734;2023-05-10T15:10:01;17.40;72.90
29031;DHT22;16122;50.236;11.734;2023-05-10T15:12:27;17.40;73.10
29031;DHT22;16122;50.236;11.734;2023-05-10T15:14:53;17.40;73.20
29031;DHT22;16122;50.236;11.734;2023-05-10T15:17:19;17.40;73.20
29031;DHT22;16122;50.236;11.734;2023-05-10T15:19:45;17.40;73.40
29031;DHT22;16122;50.236;11.734;2023-05-10T15:22:11;17.40;73.50
29031;DHT22;16122;50.236;11.734;2023-05-10T15:24:37;17.40;73.40
29031;DHT22;16122;50.236;11.734;2023-05-10T15:27:02;17.40;73.30
29031;DHT22;16122;50.236;11.734;2023-05-10T15:29:29;17.40;73.50
29031;DHT22;16122;50.236;11.734;2023-05-10T15:31:55;17.40;73.50
29031;DHT22;16122;50.236;11.734;2023-05-10T15:34:21;17.40;73.40
29031;DHT22;16122;50.236;11.734;2023-05-10T15:36:47;17.40;73.40
29031;DHT22;16122;50.236;11.734;2023-05-10T15:39:13;17.40;73.40
29031;DHT22;16122;50.236;11.734;2023-05-10T15:41:39;17.40;73.30
29031;DHT22;16122;50.236;11.734;2023-05-10T15:44:04;17.30;74.10
29031;DHT22;16122;50.236;11.734;2023-05-10T15:46:30;17.30;74.00
29031;DHT22;16122;50.236;11.734;2023-05-10T15:48:59;17.30;73.20
29031;DHT22;16122;50.236;11.734;2023-05-10T15:51:25;17.40;73.40
29031;DHT22;16122;50.236;11.734;2023-05-10T15:53:51;17.40;73.30
29031;DHT22;16122;50.236;11.734;2023-05-10T15:56:17;17.30;73.10
29031;DHT22;16122;50.236;11.734;2023-05-10T15:58:43;17.40;73.10